CDT,Max TemperatureF,Mean TemperatureF,Min TemperatureF,Max Dew PointF,MeanDew PointF,Min DewpointF,Max Humidity, Mean Humidity, Min Humidity, Max Sea Level PressureIn, Mean Sea Level PressureIn, Min Sea Level PressureIn, Max VisibilityMiles, Mean VisibilityMiles, Min VisibilityMiles, Max Wind SpeedMPH, Mean Wind SpeedMPH, Max Gust SpeedMPH,PrecipitationIn, CloudCover, Events, WindDirDegrees
2013-9-1,71,60,48,58,52,45,84,66,47,30.07,29.96,29.83,10,10,10,23,11,28,0.00,5,,347
2013-9-2,76,59,41,51,45,41,96,65,33,30.15,30.09,30.01,10,10,2,7,2,12,0.00,0,,77
2013-9-3,86,71,55,59,53,47,78,56,34,30.01,29.98,29.94,10,10,10,16,8,20,0.00,0,,184
2013-9-4,82,68,53,61,48,41,83,54,25,30.18,30.12,30.02,10,10,10,16,9,26,0.00,0,,25
2013-9-5,89,73,56,65,56,46,77,59,40,30.18,30.10,29.97,10,10,10,17,9,23,0.00,0,,123
2013-9-6,92,80,68,67,65,63,84,64,44,29.97,29.89,29.83,10,10,10,14,5,17,0.00,0,,168
2013-9-7,89,78,66,66,60,55,90,63,36,30.05,29.97,29.87,10,10,7,20,10,24,T,0,,23
2013-9-8,71,66,60,63,59,56,93,78,63,30.07,29.96,29.84,10,8,1,21,9,26,1.16,6,Rain,139
2013-9-9,75,68,60,69,64,61,93,86,78,29.84,29.71,29.60,10,7,2,31,7,38,0.49,7,Rain-Thunderstorm,187
2013-9-10,78,68,58,62,59,57,97,74,50,29.93,29.86,29.79,10,7,0,15,7,18,0.01,4,Fog,265
2013-9-11,83,68,52,58,52,44,93,60,26,30.16,30.04,29.93,10,10,10,29,8,35,0.00,0,,283
2013-9-12,74,62,49,53,49,46,86,64,41,30.31,30.25,30.17,10,10,9,16,6,21,0.00,2,,352
2013-9-13,77,63,48,51,48,45,89,64,38,30.24,30.14,29.96,10,10,9,18,9,24,0.00,0,,172
2013-9-14,62,59,55,57,54,47,93,77,60,29.96,29.88,29.82,10,6,1,16,9,21,1.32,7,Rain,152
2013-9-15,66,55,44,56,48,41,96,69,42,30.34,30.17,29.98,10,9,2,18,9,23,0.00,6,,6
2013-9-16,69,58,46,49,44,37,86,62,37,30.36,30.27,30.12,10,10,10,18,11,25,0.00,0,,155
2013-9-17,67,60,53,56,52,46,84,76,68,30.11,29.93,29.82,10,10,7,23,16,30,0.00,7,,158
2013-9-18,81,71,60,69,62,56,90,79,67,29.79,29.66,29.55,10,4,2,21,10,26,0.04,7,,129
2013-9-19,76,66,55,64,57,49,93,67,41,29.86,29.70,29.59,10,6,0,23,11,31,0.02,3,Fog,298
2013-9-20,62,53,44,54,48,40,89,70,51,30.00,29.93,29.87,10,7,1,21,9,23,0.07,7,Rain,320
2013-9-21,64,52,40,44,42,38,89,68,46,30.04,29.97,29.88,10,10,10,13,5,17,0.00,1,,77
2013-9-22,80,66,51,55,50,45,77,58,39,29.87,29.71,29.59,10,10,10,29,18,39,0.00,0,,138
2013-9-23,80,72,63,51,51,50,67,51,35,29.80,29.67,29.62,10,10,10,28,20,37,0.00,0,,158
2013-9-24,75,65,55,55,52,48,86,64,41,29.93,29.88,29.80,10,10,9,14,4,17,0.00,2,,168
2013-9-25,78,67,56,55,52,50,86,63,40,29.90,29.81,29.73,10,10,8,24,13,29,0.00,0,,144
2013-9-26,84,74,64,58,55,51,73,58,43,29.77,29.69,29.65,10,10,7,29,16,39,0.00,3,,170
2013-9-27,64,58,52,55,49,46,96,82,67,29.80,29.76,29.72,10,9,5,16,9,20,0.15,7,Rain,343
2013-9-28,61,55,49,51,48,41,96,76,55,29.83,29.72,29.62,10,6,2,21,11,25,1.15,7,Rain,301
2013-9-29,78,62,45,49,44,39,83,58,33,29.84,29.72,29.52,10,10,10,17,10,24,0.00,0,,172
2013-9-30,76,63,50,53,49,42,86,60,33,29.57,29.52,29.47,10,10,10,24,6,30,T,0,,170